Flight Briefing for CPX257

Departure Arrival
Grantley Adams International Airport (TBPB)
Click to view FAA NOTAMS
Miami International Airport (KMIA)
Click to view FAA NOTAMS
Departure Time Arrival Time
N/A N/A
Aircraft Distance
B767-300BDSF 1402nm
Departure METAR Arrival METAR
TBPB 212200Z 09014KT 9999 FEW020 28/22 Q1012 NOSIG KMIA 212153Z 11011KT 10SM FEW044 FEW060 FEW250 31/19 A2992 RMK AO2 SLP133 T03060189
Suggested Route
BGI UA555 ILURI MEEGL Y421 HAGIT Y308 FOWEE FLIPR6


View recent IFR Routes data
Notes



Charts and Procedures

Charts for TBPB
No chart available
Charts for KMIA
No chart available

Windy.com Weather Map